Time;durP1;ratioP1;P1;durP2;ratioP2;P2;SDS_P1;SDS_P2;PMS_P1;PMS_P2;Temp;Humidity;BMP_temperature;BMP_pressure;BME280_temperature;BME280_humidity;BME280_pressure;Samples;Min_cycle;Max_cycle;Signal;HPM_P1;HPM_P2
2022/08/14 00:01:58;;;;;;;10.48;9.57;;;20.50;99.90;;;;;;5132078;27;20223;-51
2022/08/14 00:04:29;;;;;;;10.68;9.68;;;20.50;99.90;;;;;;5132653;27;20218;-51
2022/08/14 00:07:11;;;;;;;10.93;9.93;;;20.30;99.90;;;;;;5133084;27;20199;-51
2022/08/14 00:09:41;;;;;;;11.25;9.90;;;20.30;99.90;;;;;;5097743;28;20207;-52
2022/08/14 00:12:29;;;;;;;11.35;10.25;;;20.20;99.90;;;;;;5112280;28;20896;-51
2022/08/14 00:15:09;;;;;;;11.82;10.60;;;20.20;99.90;;;;;;5112009;28;20203;-51
2022/08/14 00:17:38;;;;;;;13.13;10.07;;;20.10;99.90;;;;;;5111986;28;20211;-51
2022/08/14 00:20:15;;;;;;;11.18;10.18;;;20.00;99.90;;;;;;5110605;28;20210;-51
2022/08/14 00:22:59;;;;;;;11.27;10.27;;;20.00;99.90;;;;;;5112312;28;20200;-52
2022/08/14 00:25:46;;;;;;;13.05;10.45;;;19.90;99.90;;;;;;5112079;28;20199;-51
2022/08/14 00:28:33;;;;;;;12.98;9.75;;;19.90;99.90;;;;;;5111751;28;20220;-52
2022/08/14 00:31:04;;;;;;;12.63;10.55;;;19.90;99.90;;;;;;5111820;28;20265;-51
2022/08/14 00:33:35;;;;;;;10.98;9.95;;;19.80;99.90;;;;;;5108408;28;20200;-52
2022/08/14 00:36:20;;;;;;;11.38;10.18;;;19.70;99.90;;;;;;5112035;28;20207;-51
2022/08/14 00:39:13;;;;;;;11.52;10.43;;;19.70;99.90;;;;;;5109493;28;20663;-51
2022/08/14 00:41:45;;;;;;;11.68;10.57;;;19.60;99.90;;;;;;5111305;28;20565;-51
2022/08/14 00:44:14;;;;;;;11.60;10.50;;;19.60;99.90;;;;;;5111867;28;20278;-51
2022/08/14 00:47:00;;;;;;;11.25;10.15;;;19.60;99.90;;;;;;5111084;28;20658;-51
2022/08/14 00:49:31;;;;;;;11.82;10.60;;;19.60;99.90;;;;;;5111601;28;20675;-51
2022/08/14 00:52:10;;;;;;;12.15;11.07;;;19.50;99.90;;;;;;5111365;28;20215;-51
2022/08/14 00:54:51;;;;;;;12.05;10.60;;;19.50;99.90;;;;;;5108294;28;20199;-51
2022/08/14 00:57:27;;;;;;;14.82;10.82;;;19.50;99.90;;;;;;5121805;27;20226;-52
2022/08/14 00:59:56;;;;;;;12.32;11.02;;;19.50;99.90;;;;;;5131824;27;20203;-51
2022/08/14 01:02:25;;;;;;;11.90;10.80;;;19.40;99.90;;;;;;5131741;27;20272;-51
2022/08/14 01:05:03;;;;;;;13.32;11.05;;;19.40;99.90;;;;;;5132053;27;20203;-51
2022/08/14 01:07:31;;;;;;;11.57;10.48;;;19.40;99.90;;;;;;5137349;27;20207;-50
2022/08/14 01:10:18;;;;;;;11.35;10.35;;;19.30;99.90;;;;;;5132281;27;20233;-52
2022/08/14 01:12:47;;;;;;;11.52;10.43;;;19.30;99.90;;;;;;5131653;27;20218;-49
2022/08/14 01:15:20;;;;;;;10.63;9.73;;;19.30;99.90;;;;;;5131632;27;20202;-51
2022/08/14 01:23:33;;;;;;;12.10;10.80;;;19.20;99.90;;;;;;5124968;27;20202;-51
2022/08/14 01:26:14;;;;;;;12.32;11.02;;;19.10;99.90;;;;;;5131382;27;20790;-51
2022/08/14 01:29:04;;;;;;;12.07;10.90;;;19.10;99.90;;;;;;5120754;27;20199;-52
2022/08/14 01:31:35;;;;;;;11.52;10.45;;;19.10;99.90;;;;;;5109438;27;20257;-51
2022/08/14 01:34:08;;;;;;;11.95;10.80;;;19.00;99.90;;;;;;5110129;28;20612;-52
2022/08/14 01:36:56;;;;;;;12.55;11.23;;;19.00;99.90;;;;;;5110383;28;20911;-51
2022/08/14 01:39:26;;;;;;;11.75;10.52;;;19.00;99.90;;;;;;5108087;28;20256;-51
2022/08/14 01:41:59;;;;;;;11.82;10.73;;;19.00;99.90;;;;;;5110307;28;20224;-51
2022/08/14 01:44:30;;;;;;;12.32;11.18;;;19.00;99.90;;;;;;5110513;28;20272;-51
2022/08/14 01:47:03;;;;;;;11.63;10.50;;;19.00;99.90;;;;;;5109354;28;20209;-52
2022/08/14 01:49:33;;;;;;;12.30;11.10;;;19.00;99.90;;;;;;5110482;28;20199;-51
2022/08/14 01:52:02;;;;;;;12.00;10.85;;;19.00;99.90;;;;;;5109282;28;20238;-51
2022/08/14 01:54:41;;;;;;;12.00;10.82;;;19.00;99.90;;;;;;5109642;28;20759;-51
2022/08/14 01:57:10;;;;;;;12.20;11.00;;;19.00;99.90;;;;;;5110459;28;20215;-51
2022/08/14 01:59:42;;;;;;;12.18;11.00;;;18.90;99.90;;;;;;5108279;28;20242;-51
2022/08/14 02:02:13;;;;;;;12.38;11.02;;;18.90;99.90;;;;;;5110527;28;20600;-51
2022/08/14 02:04:47;;;;;;;11.88;10.70;;;18.90;99.90;;;;;;5110248;28;20195;-49
2022/08/14 02:07:24;;;;;;;12.80;11.48;;;18.90;99.90;;;;;;5109398;28;20253;-51
2022/08/14 02:10:14;;;;;;;11.30;10.20;;;18.90;99.90;;;;;;5108569;28;20204;-51
2022/08/14 02:12:46;;;;;;;13.27;11.23;;;18.90;99.90;;;;;;5108306;28;20276;-52
2022/08/14 02:15:21;;;;;;;12.40;11.02;;;18.90;99.90;;;;;;5109947;28;20291;-51
2022/08/14 02:17:50;;;;;;;12.55;11.20;;;18.90;99.90;;;;;;5107932;28;20553;-51
2022/08/14 02:20:19;;;;;;;14.15;11.23;;;18.90;99.90;;;;;;5107117;28;20272;-51
2022/08/14 02:22:52;;;;;;;11.63;10.52;;;18.90;99.90;;;;;;5108915;28;20295;-51
2022/08/14 02:25:23;;;;;;;12.27;11.18;;;18.90;99.90;;;;;;5109656;28;20286;-51
2022/08/14 02:27:57;;;;;;;12.00;10.77;;;18.90;99.90;;;;;;5109379;28;20211;-52
2022/08/14 02:30:45;;;;;;;13.35;12.00;;;18.90;99.90;;;;;;5104217;28;20855;-51
2022/08/14 02:33:13;;;;;;;12.55;11.32;;;18.90;99.90;;;;;;5106372;28;20635;-51
2022/08/14 02:35:43;;;;;;;12.10;10.90;;;18.90;99.90;;;;;;5109666;28;20207;-50
2022/08/14 02:38:20;;;;;;;12.35;11.05;;;18.90;99.90;;;;;;5109309;28;20290;-51
2022/08/14 02:40:59;;;;;;;11.60;10.60;;;18.90;99.90;;;;;;5109437;28;20238;-50
2022/08/14 02:43:31;;;;;;;12.60;11.40;;;18.90;99.90;;;;;;5109721;28;20203;-51
2022/08/14 02:46:15;;;;;;;12.27;11.07;;;19.00;99.90;;;;;;5108830;28;20202;-51
2022/08/14 02:48:54;;;;;;;12.13;10.85;;;19.00;99.90;;;;;;5109374;28;20280;-51
2022/08/14 02:51:33;;;;;;;12.57;11.30;;;19.00;99.90;;;;;;5108978;28;20218;-51
2022/08/14 02:54:04;;;;;;;11.00;10.00;;;19.00;99.90;;;;;;5109037;28;20654;-51
2022/08/14 02:56:37;;;;;;;12.13;11.00;;;19.00;99.90;;;;;;5109602;28;20208;-51
2022/08/14 02:59:30;;;;;;;11.88;10.77;;;19.00;99.90;;;;;;5108919;28;20322;-51
2022/08/14 03:02:01;;;;;;;12.10;10.98;;;19.00;99.90;;;;;;5109134;28;20285;-51
2022/08/14 03:04:30;;;;;;;11.77;10.65;;;19.10;99.90;;;;;;5113419;28;20235;-51
2022/08/14 03:06:59;;;;;;;12.32;11.15;;;19.10;99.90;;;;;;5113482;28;20217;-51
2022/08/14 03:09:35;;;;;;;12.18;10.80;;;19.10;99.90;;;;;;5112636;28;20210;-51
2022/08/14 03:12:25;;;;;;;12.10;10.90;;;19.20;99.90;;;;;;5112922;28;20295;-51
2022/08/14 03:15:01;;;;;;;12.25;11.07;;;19.20;99.90;;;;;;5113683;28;20206;-51
2022/08/14 03:17:31;;;;;;;13.05;11.27;;;19.10;99.90;;;;;;5113037;28;20423;-52
2022/08/14 03:20:20;;;;;;;12.07;10.88;;;19.10;99.90;;;;;;5112973;28;20311;-51
2022/08/14 03:22:50;;;;;;;12.63;11.30;;;19.10;99.90;;;;;;5112575;28;20933;-51
2022/08/14 03:25:20;;;;;;;12.35;11.25;;;19.20;99.90;;;;;;5113238;28;20218;-51
2022/08/14 03:27:50;;;;;;;11.90;10.73;;;19.10;99.90;;;;;;5112510;28;20656;-51
2022/08/14 03:30:31;;;;;;;13.35;10.82;;;19.10;99.90;;;;;;5112876;28;20722;-51
2022/08/14 03:33:09;;;;;;;13.57;11.10;;;19.10;99.90;;;;;;5105967;28;20303;-51
2022/08/14 03:35:39;;;;;;;12.57;10.70;;;19.10;99.90;;;;;;5112370;28;20633;-51
2022/08/14 03:38:29;;;;;;;11.90;10.60;;;19.20;99.90;;;;;;5112474;28;20264;-52
2022/08/14 03:41:18;;;;;;;11.57;10.43;;;19.20;99.90;;;;;;5112769;28;20318;-52
2022/08/14 03:43:55;;;;;;;11.88;10.73;;;19.20;99.90;;;;;;5112675;28;20952;-51
2022/08/14 03:46:30;;;;;;;13.07;11.63;;;19.10;99.90;;;;;;5112535;28;20211;-51
2022/08/14 03:49:23;;;;;;;12.82;11.52;;;19.10;99.90;;;;;;5112684;28;20298;-51
2022/08/14 03:51:57;;;;;;;12.77;11.48;;;19.10;99.90;;;;;;5111708;28;20842;-51
2022/08/14 03:54:28;;;;;;;11.63;10.45;;;19.10;99.90;;;;;;5111976;28;20869;-51
2022/08/14 03:56:59;;;;;;;12.95;11.00;;;19.10;99.90;;;;;;5112419;28;20208;-51
2022/08/14 03:59:31;;;;;;;12.75;10.82;;;19.20;99.90;;;;;;5112343;28;20207;-51
2022/08/14 04:02:02;;;;;;;12.10;11.00;;;19.20;99.90;;;;;;5112440;28;20227;-51
2022/08/14 04:04:36;;;;;;;12.13;11.05;;;19.20;99.90;;;;;;5112066;28;20207;-51
2022/08/14 04:07:09;;;;;;;12.98;11.60;;;19.20;99.90;;;;;;5112440;28;20671;-51
2022/08/14 04:09:37;;;;;;;12.60;11.38;;;19.20;99.90;;;;;;5111645;28;20218;-51
2022/08/14 04:12:07;;;;;;;12.90;11.60;;;19.10;99.90;;;;;;5112446;28;20318;-51
2022/08/14 04:14:42;;;;;;;13.15;11.52;;;19.10;99.90;;;;;;5111450;28;20578;-52
2022/08/14 04:17:12;;;;;;;12.70;11.50;;;19.20;99.90;;;;;;5111883;28;20208;-51
2022/08/14 04:19:43;;;;;;;13.70;12.02;;;19.20;99.90;;;;;;5111965;28;20230;-52
2022/08/14 04:22:12;;;;;;;13.25;11.95;;;19.20;99.90;;;;;;5111833;28;20231;-51
2022/08/14 04:24:44;;;;;;;12.65;11.35;;;19.20;99.90;;;;;;5111434;28;20196;-51
2022/08/14 04:27:16;;;;;;;13.50;12.23;;;19.30;99.90;;;;;;5111777;28;20570;-52
2022/08/14 04:29:45;;;;;;;13.07;11.35;;;19.20;99.90;;;;;;5111992;28;20257;-52
2022/08/14 04:32:14;;;;;;;12.77;11.50;;;19.20;99.90;;;;;;5111799;28;20390;-52
2022/08/14 04:35:02;;;;;;;12.30;11.10;;;19.20;99.90;;;;;;5111794;28;20322;-51
2022/08/14 04:46:09;;;;;;;11.95;10.85;;;19.50;99.90;;;;;;5111570;28;20290;-52
2022/08/14 04:48:57;;;;;;;12.90;11.23;;;20.10;99.90;;;;;;5104417;27;20293;-50
2022/08/14 04:51:27;;;;;;;12.02;10.82;;;20.70;99.90;;;;;;5106552;28;20224;-52
2022/08/14 04:54:04;;;;;;;12.18;11.05;;;21.20;99.90;;;;;;5110655;28;20335;-52
2022/08/14 04:56:32;;;;;;;11.00;9.90;;;21.70;99.90;;;;;;5111047;28;20215;-52
2022/08/14 04:59:05;;;;;;;10.30;9.23;;;21.90;99.90;;;;;;5110926;28;20208;-51
2022/08/14 05:01:42;;;;;;;11.35;10.30;;;22.20;99.90;;;;;;5111008;28;20226;-52
2022/08/14 05:04:12;;;;;;;10.93;9.82;;;22.40;99.90;;;;;;5110957;28;20839;-52
2022/08/14 05:06:43;;;;;;;10.55;9.75;;;22.70;99.90;;;;;;5111849;28;20200;-52
2022/08/14 05:09:11;;;;;;;11.70;10.70;;;23.00;99.90;;;;;;5110659;28;20267;-52
2022/08/14 05:11:41;;;;;;;11.82;10.63;;;23.00;99.90;;;;;;5117994;27;20229;-52
2022/08/14 05:14:11;;;;;;;12.30;11.20;;;23.10;99.90;;;;;;5126438;27;20254;-52
2022/08/14 05:17:01;;;;;;;11.65;10.52;;;23.30;99.90;;;;;;5116858;27;20295;-52
2022/08/14 05:19:29;;;;;;;11.10;10.00;;;23.50;99.90;;;;;;5123841;27;20745;-51
2022/08/14 05:22:00;;;;;;;11.05;10.02;;;23.80;99.90;;;;;;5125082;27;20218;-51
2022/08/14 05:24:47;;;;;;;11.40;10.27;;;24.10;99.90;;;;;;5128837;27;20227;-52
2022/08/14 05:27:19;;;;;;;10.43;9.50;;;24.50;99.90;;;;;;5129115;27;20206;-51
2022/08/14 05:29:51;;;;;;;9.65;8.85;;;24.80;99.90;;;;;;5118474;27;20215;-52
2022/08/14 05:32:21;;;;;;;10.25;9.25;;;25.10;99.90;;;;;;5126912;27;20631;-52
2022/08/14 05:34:56;;;;;;;9.38;8.52;;;25.30;99.90;;;;;;5123469;27;20247;-52
2022/08/14 05:37:26;;;;;;;9.68;8.88;;;25.50;99.90;;;;;;5123128;27;20203;-52
2022/08/14 05:39:55;;;;;;;11.05;10.05;;;25.20;99.90;;;;;;5125159;27;20202;-52
2022/08/14 05:42:24;;;;;;;10.77;9.88;;;24.80;99.90;;;;;;5122641;27;20284;-52
2022/08/14 05:44:56;;;;;;;11.38;10.23;;;24.40;99.90;;;;;;5123988;27;20203;-51
2022/08/14 05:47:26;;;;;;;11.70;10.55;;;23.90;99.90;;;;;;5111321;27;20868;-52
2022/08/14 05:49:57;;;;;;;11.20;9.90;;;23.70;99.90;;;;;;5124143;27;20289;-52
2022/08/14 05:52:25;;;;;;;11.90;10.80;;;23.80;99.90;;;;;;5126556;27;20207;-52
2022/08/14 05:55:08;;;;;;;11.98;10.88;;;23.70;99.90;;;;;;5126781;27;20211;-52
2022/08/14 05:57:46;;;;;;;11.85;10.65;;;23.60;99.90;;;;;;5128372;27;20198;-51
2022/08/14 06:00:16;;;;;;;12.25;10.77;;;23.30;99.90;;;;;;5125303;27;20210;-52
2022/08/14 06:03:00;;;;;;;12.18;10.93;;;23.30;99.90;;;;;;5125816;27;20602;-52
2022/08/14 06:05:34;;;;;;;13.95;10.80;;;23.30;99.90;;;;;;5125358;27;20195;-52
2022/08/14 06:08:13;;;;;;;12.98;11.10;;;23.20;99.90;;;;;;5122278;27;20214;-52
2022/08/14 06:11:03;;;;;;;11.93;10.82;;;23.20;99.90;;;;;;5112629;27;20306;-51
2022/08/14 06:13:31;;;;;;;11.52;10.63;;;23.50;99.90;;;;;;5110186;27;20200;-52
2022/08/14 06:16:15;;;;;;;11.68;10.60;;;23.70;99.90;;;;;;5110182;28;20267;-52
2022/08/14 06:18:48;;;;;;;12.10;11.00;;;23.80;99.90;;;;;;5109240;28;20276;-52
2022/08/14 06:21:20;;;;;;;11.77;9.60;;;24.00;99.90;;;;;;5107356;27;20250;-52
2022/08/14 06:23:49;;;;;;;11.40;9.48;;;24.70;99.90;;;;;;5107886;27;20684;-52
2022/08/14 06:26:18;;;;;;;10.07;9.07;;;25.30;99.90;;;;;;5104378;28;20242;-52
2022/08/14 06:28:50;;;;;;;9.75;8.95;;;25.90;99.90;;;;;;5095261;28;20196;-52
2022/08/14 06:31:19;;;;;;;10.23;9.23;;;26.30;99.90;;;;;;5106751;28;20310;-52
2022/08/14 06:33:49;;;;;;;9.30;8.35;;;26.50;99.90;;;;;;5099406;28;20209;-52
2022/08/14 06:36:37;;;;;;;9.90;8.90;;;26.60;99.90;;;;;;5116555;28;20298;-52
2022/08/14 06:39:06;;;;;;;9.98;9.07;;;26.90;99.90;;;;;;5104346;28;20253;-52
2022/08/14 06:41:37;;;;;;;10.63;9.52;;;27.10;99.90;;;;;;5113345;28;20227;-52
2022/08/14 06:44:25;;;;;;;9.73;8.98;;;27.30;99.90;;;;;;5113141;28;20207;-52
2022/08/14 06:47:00;;;;;;;10.02;9.13;;;27.30;99.90;;;;;;5114105;28;20210;-52
2022/08/14 06:49:29;;;;;;;10.60;9.50;;;27.40;99.90;;;;;;5114104;28;20203;-52
2022/08/14 06:52:11;;;;;;;9.20;8.30;;;27.80;99.90;;;;;;5116555;28;20297;-52
2022/08/14 06:54:42;;;;;;;9.13;8.32;;;28.00;99.90;;;;;;5122137;27;20215;-52
2022/08/14 06:57:11;;;;;;;10.38;9.38;;;28.20;99.90;;;;;;5129850;27;20212;-51
2022/08/14 06:59:40;;;;;;;9.88;8.40;;;28.40;99.90;;;;;;5111514;28;20214;-52
2022/08/14 07:07:50;;;;;;;10.10;9.20;;;28.60;99.90;;;;;;5113202;28;20302;-52
2022/08/14 07:10:21;;;;;;;9.90;8.88;;;28.90;99.90;;;;;;5109708;27;20272;-51
2022/08/14 07:12:52;;;;;;;9.85;9.05;;;29.20;99.90;;;;;;5104865;27;20303;-51
2022/08/14 07:15:32;;;;;;;10.00;9.20;;;29.30;99.90;;;;;;5110293;27;20219;-52
2022/08/14 07:18:02;;;;;;;9.32;8.45;;;29.40;99.90;;;;;;5115909;27;20205;-52
2022/08/14 07:20:37;;;;;;;9.00;8.15;;;29.70;99.90;;;;;;5120746;27;20604;-52
2022/08/14 07:23:07;;;;;;;9.23;8.32;;;29.70;99.90;;;;;;5110911;27;20199;-52
2022/08/14 07:25:47;;;;;;;8.98;8.23;;;29.60;99.90;;;;;;5108379;27;20235;-52
2022/08/14 07:28:22;;;;;;;9.27;8.38;;;29.70;99.90;;;;;;5104165;27;20748;-52
2022/08/14 07:30:56;;;;;;;8.50;7.70;;;29.80;99.90;;;;;;5094193;27;20228;-52
2022/08/14 07:33:34;;;;;;;9.00;8.07;;;30.00;99.90;;;;;;5110350;27;20211;-52
2022/08/14 07:36:08;;;;;;;8.13;7.53;;;29.80;99.90;;;;;;5110862;27;20696;-52
2022/08/14 07:38:56;;;;;;;8.88;8.18;;;30.00;99.90;;;;;;5110983;27;20295;-52
2022/08/14 07:41:24;;;;;;;7.45;6.85;;;30.10;99.90;;;;;;5111038;28;20296;-52
2022/08/14 07:44:01;;;;;;;7.95;7.25;;;30.30;99.90;;;;;;5110798;28;20233;-51
2022/08/14 07:46:49;;;;;;;8.10;7.45;;;30.30;99.90;;;;;;5109968;28;20602;-52
2022/08/14 07:49:18;;;;;;;8.27;7.57;;;30.30;99.90;;;;;;5109451;28;20499;-52
2022/08/14 07:51:48;;;;;;;7.88;7.18;;;30.30;99.90;;;;;;5110507;28;20227;-52
2022/08/14 07:54:18;;;;;;;8.27;7.47;;;30.30;99.90;;;;;;5110814;28;20207;-52
2022/08/14 07:56:57;;;;;;;8.25;7.43;;;30.20;99.90;;;;;;5111186;28;20302;-52
2022/08/14 07:59:28;;;;;;;8.27;7.50;;;30.20;99.90;;;;;;5111435;28;20290;-51
2022/08/14 08:02:11;;;;;;;7.88;7.18;;;30.10;99.90;;;;;;5106362;27;20253;-53
2022/08/14 08:04:49;;;;;;;8.23;7.43;;;30.20;99.90;;;;;;5106702;27;20206;-53
2022/08/14 08:07:23;;;;;;;7.90;7.30;;;30.20;99.90;;;;;;5109923;28;20215;-53
2022/08/14 08:09:57;;;;;;;7.50;6.90;;;30.00;99.90;;;;;;5107158;27;20206;-53
2022/08/14 08:12:30;;;;;;;6.88;6.22;;;29.80;99.90;;;;;;5108494;27;20628;-52
2022/08/14 08:15:01;;;;;;;8.23;7.53;;;29.70;99.90;;;;;;5118457;27;20206;-52
2022/08/14 08:17:36;;;;;;;7.80;7.10;;;29.70;99.90;;;;;;5108470;27;20237;-53
2022/08/14 08:20:08;;;;;;;7.53;6.90;;;29.60;99.90;;;;;;5109578;27;20212;-52
2022/08/14 08:22:42;;;;;;;7.95;7.15;;;29.50;99.90;;;;;;5111958;27;20607;-52
2022/08/14 08:25:15;;;;;;;8.43;7.20;;;29.30;99.90;;;;;;5106502;27;20200;-52
2022/08/14 08:28:01;;;;;;;7.28;6.68;;;29.30;99.90;;;;;;5104410;28;20204;-52
2022/08/14 08:30:37;;;;;;;7.43;6.82;;;29.40;99.90;;;;;;5113569;27;20219;-52
2022/08/14 08:33:18;;;;;;;7.25;6.60;;;29.20;99.90;;;;;;5115419;27;20288;-53
2022/08/14 08:35:46;;;;;;;7.78;7.07;;;29.20;99.90;;;;;;5112036;27;20722;-52
2022/08/14 08:38:20;;;;;;;7.38;6.78;;;29.20;99.90;;;;;;5111432;27;20264;-52
2022/08/14 08:41:09;;;;;;;7.57;6.97;;;29.00;99.90;;;;;;5114759;27;20235;-52
2022/08/14 08:43:40;;;;;;;7.18;6.55;;;28.90;99.90;;;;;;5109588;28;20733;-52
2022/08/14 08:46:15;;;;;;;6.95;6.40;;;29.00;99.90;;;;;;5110955;28;20668;-52
2022/08/14 08:48:50;;;;;;;7.53;6.82;;;29.20;99.90;;;;;;5110422;28;20206;-52
2022/08/14 08:51:23;;;;;;;8.18;7.07;;;29.00;99.90;;;;;;5116868;27;20227;-53
2022/08/14 08:54:03;;;;;;;6.90;6.30;;;29.00;99.90;;;;;;5110080;28;20960;-52
2022/08/14 08:56:40;;;;;;;6.85;6.25;;;28.90;99.90;;;;;;5110302;28;20307;-52
2022/08/14 08:59:17;;;;;;;6.78;6.18;;;28.90;99.90;;;;;;5110681;28;20205;-52
2022/08/14 09:01:50;;;;;;;7.30;6.70;;;29.00;99.90;;;;;;5105635;28;20263;-52
2022/08/14 09:04:24;;;;;;;6.45;5.95;;;29.00;99.90;;;;;;5106880;28;20211;-53
2022/08/14 09:06:53;;;;;;;7.28;6.55;;;28.90;99.90;;;;;;5110648;28;20290;-52
2022/08/14 09:09:50;;;;;;;7.15;6.47;;;29.00;99.80;;;;;;5107665;27;20583;-52
2022/08/14 09:12:28;;;;;;;7.53;6.88;;;29.00;99.90;;;;;;5107089;27;20215;-52
2022/08/14 09:14:59;;;;;;;7.80;7.00;;;29.00;99.90;;;;;;5113083;27;20217;-52
2022/08/14 09:17:28;;;;;;;7.63;7.03;;;29.00;99.90;;;;;;5118180;27;20703;-53
2022/08/14 09:19:57;;;;;;;7.78;7.10;;;28.90;99.90;;;;;;5116377;27;20195;-52
2022/08/14 09:22:31;;;;;;;7.82;7.20;;;28.80;99.90;;;;;;5116367;27;20295;-52
2022/08/14 09:25:10;;;;;;;8.05;7.32;;;28.90;99.90;;;;;;5109952;27;20204;-52
2022/08/14 09:27:42;;;;;;;7.80;7.15;;;28.90;99.90;;;;;;5107050;27;20307;-52
2022/08/14 09:30:11;;;;;;;8.50;7.70;;;28.90;99.90;;;;;;5106522;27;20337;-52
2022/08/14 09:33:27;;;;;;;8.90;8.10;;;28.90;99.90;;;;;;5108475;27;20298;-53
2022/08/14 09:36:35;;;;;;;8.85;7.90;;;29.00;99.90;;;;;;5103836;27;20226;-52
2022/08/14 09:39:17;;;;;;;9.82;7.75;;;29.00;99.90;;;;;;5038158;27;20202;-52
2022/08/14 09:42:07;;;;;;;7.47;6.82;;;29.00;99.90;;;;;;5109602;27;20280;-52
2022/08/14 09:45:06;;;;;;;7.13;6.63;;;29.00;99.90;;;;;;5109788;27;20294;-53
2022/08/14 09:47:44;;;;;;;7.65;6.97;;;28.90;99.70;;;;;;5111775;27;20207;-52
2022/08/14 09:50:18;;;;;;;8.95;8.20;;;28.80;99.90;;;;;;5108357;27;20206;-52
2022/08/14 09:52:51;;;;;;;8.07;7.38;;;28.80;99.90;;;;;;5110911;27;20199;-52
2022/08/14 09:55:25;;;;;;;8.93;8.02;;;28.90;99.90;;;;;;5109250;28;20217;-52
2022/08/14 09:58:08;;;;;;;8.35;7.65;;;28.90;99.90;;;;;;5111992;27;20314;-52
2022/08/14 10:00:48;;;;;;;8.68;7.78;;;28.80;99.90;;;;;;5115468;27;20223;-52
2022/08/14 10:03:29;;;;;;;8.35;7.55;;;29.10;99.90;;;;;;5103567;28;20253;-53
2022/08/14 10:06:08;;;;;;;8.65;7.95;;;29.30;99.90;;;;;;5108481;28;20207;-53
2022/08/14 10:08:45;;;;;;;8.63;7.93;;;29.30;99.40;;;;;;5103470;28;20279;-51
2022/08/14 10:11:21;;;;;;;8.68;7.90;;;28.90;99.50;;;;;;5114861;27;20223;-52
2022/08/14 10:13:54;;;;;;;8.20;7.50;;;28.80;99.90;;;;;;5111533;28;20210;-52
2022/08/14 10:16:24;;;;;;;8.60;7.90;;;28.40;99.80;;;;;;5109228;27;20257;-52
2022/08/14 10:19:09;;;;;;;8.02;7.32;;;28.60;99.90;;;;;;5108009;27;20255;-52
2022/08/14 10:21:39;;;;;;;7.97;7.28;;;29.00;99.90;;;;;;5112747;27;20248;-51
2022/08/14 10:24:28;;;;;;;8.02;7.32;;;29.20;99.90;;;;;;5107532;27;20300;-51
2022/08/14 10:27:15;;;;;;;7.53;6.93;;;29.20;99.70;;;;;;5109595;28;20237;-52
2022/08/14 10:29:48;;;;;;;7.50;6.80;;;29.30;99.90;;;;;;5111760;28;20329;-51
2022/08/14 10:32:16;;;;;;;7.13;6.53;;;29.30;99.50;;;;;;5109465;28;20231;-52
2022/08/14 10:35:06;;;;;;;7.32;6.72;;;29.00;98.80;;;;;;5105547;28;20824;-52
2022/08/14 10:37:47;;;;;;;7.55;6.95;;;29.00;99.40;;;;;;5109316;28;20613;-52
2022/08/14 10:40:26;;;;;;;6.95;6.40;;;28.90;99.20;;;;;;5113524;28;20681;-52
2022/08/14 10:43:19;;;;;;;7.30;6.75;;;29.00;99.30;;;;;;5108969;28;20250;-52
2022/08/14 10:45:57;;;;;;;6.45;5.95;;;28.80;99.20;;;;;;5109308;28;20219;-52
2022/08/14 10:48:31;;;;;;;6.70;6.20;;;28.70;98.80;;;;;;5108792;28;20195;-52
2022/08/14 10:51:15;;;;;;;6.80;6.20;;;28.80;98.70;;;;;;5114263;28;20227;-52
2022/08/14 10:53:54;;;;;;;6.82;6.22;;;28.80;98.40;;;;;;5108869;28;20262;-52
2022/08/14 10:56:31;;;;;;;6.25;5.75;;;28.90;99.30;;;;;;5114117;28;20250;-52
2022/08/14 10:59:03;;;;;;;7.28;5.68;;;29.00;98.10;;;;;;5121422;28;20575;-51
2022/08/14 11:01:37;;;;;;;7.60;5.63;;;29.20;97.80;;;;;;5113265;28;20696;-52
2022/08/14 11:04:25;;;;;;;5.75;5.35;;;29.30;96.90;;;;;;5108855;28;20571;-52
2022/08/14 11:06:55;;;;;;;5.88;5.43;;;29.40;96.70;;;;;;5116942;28;20199;-52
2022/08/14 11:09:23;;;;;;;6.25;5.75;;;29.30;96.30;;;;;;5102925;28;20212;-52
2022/08/14 11:11:55;;;;;;;6.32;5.82;;;29.20;96.80;;;;;;5109574;28;20649;-52
2022/08/14 11:14:51;;;;;;;7.07;6.47;;;29.10;96.80;;;;;;5110916;28;20290;-52
2022/08/14 11:17:30;;;;;;;7.10;6.50;;;29.10;97.70;;;;;;5106141;28;20280;-53
2022/08/14 11:20:01;;;;;;;6.85;6.35;;;29.20;97.30;;;;;;5107983;28;20235;-52
2022/08/14 11:22:31;;;;;;;6.85;6.32;;;29.40;97.10;;;;;;5107458;28;20661;-52
2022/08/14 11:25:22;;;;;;;7.30;6.63;;;29.60;96.70;;;;;;5109405;28;20298;-52
2022/08/14 11:27:52;;;;;;;6.63;6.10;;;29.50;96.60;;;;;;5112410;28;20210;-52
2022/08/14 11:30:24;;;;;;;6.43;5.82;;;29.70;96.30;;;;;;5109356;28;20199;-52
2022/08/14 11:33:14;;;;;;;6.50;5.90;;;29.90;95.80;;;;;;5114786;27;20934;-53
2022/08/14 11:35:48;;;;;;;6.53;6.03;;;30.20;95.90;;;;;;5112734;27;20281;-52
2022/08/14 11:38:18;;;;;;;7.00;6.40;;;30.40;95.90;;;;;;5113446;27;20227;-51
2022/08/14 11:40:49;;;;;;;6.28;5.82;;;30.40;95.20;;;;;;5109942;27;20319;-52
2022/08/14 11:43:19;;;;;;;7.03;6.32;;;30.40;95.50;;;;;;5114492;27;20207;-52
2022/08/14 11:45:56;;;;;;;6.88;6.30;;;30.30;94.90;;;;;;5110767;28;20237;-52
2022/08/14 11:48:28;;;;;;;6.82;6.32;;;30.10;95.00;;;;;;5111288;28;20269;-51
2022/08/14 11:51:19;;;;;;;6.72;6.13;;;30.10;95.40;;;;;;5120903;27;20310;-51
2022/08/14 11:53:53;;;;;;;6.60;6.00;;;30.10;95.10;;;;;;5109029;28;20207;-53
2022/08/14 11:56:21;;;;;;;6.20;5.70;;;30.20;95.50;;;;;;5117813;27;20215;-53
2022/08/14 11:58:56;;;;;;;6.63;6.03;;;30.00;95.40;;;;;;5111808;28;20211;-52
2022/08/14 12:01:27;;;;;;;6.15;5.55;;;29.90;94.80;;;;;;5121392;27;20230;-51
2022/08/14 12:04:09;;;;;;;5.93;5.53;;;29.90;94.90;;;;;;5103555;28;20227;-52
2022/08/14 12:06:57;;;;;;;6.20;5.70;;;29.90;94.20;;;;;;5111216;28;20301;-52
2022/08/14 12:09:30;;;;;;;6.43;5.93;;;29.80;95.00;;;;;;5110909;28;20215;-52
2022/08/14 12:11:58;;;;;;;6.63;6.03;;;29.80;95.10;;;;;;5116241;27;20683;-52
2022/08/14 12:14:28;;;;;;;6.20;5.60;;;29.70;94.90;;;;;;5120017;27;20204;-53
2022/08/14 12:17:07;;;;;;;6.40;5.90;;;29.80;95.10;;;;;;5108069;28;20203;-53
2022/08/14 12:19:49;;;;;;;6.55;6.05;;;30.00;94.90;;;;;;5115187;27;20204;-53
2022/08/14 12:22:34;;;;;;;6.68;6.05;;;30.20;94.40;;;;;;5118618;27;20305;-53
2022/08/14 12:25:03;;;;;;;6.72;6.13;;;30.10;94.90;;;;;;5109562;27;20211;-51
2022/08/14 12:27:41;;;;;;;6.78;6.18;;;30.10;95.00;;;;;;5110512;27;20210;-52
2022/08/14 12:30:27;;;;;;;6.70;6.20;;;30.00;94.60;;;;;;5106160;27;20830;-53
2022/08/14 12:33:07;;;;;;;6.00;5.50;;;30.10;94.60;;;;;;5114502;27;20760;-52
2022/08/14 12:35:42;;;;;;;9.73;5.65;;;30.50;94.60;;;;;;5110269;28;20547;-52
2022/08/14 12:38:12;;;;;;;5.55;5.07;;;30.70;94.20;;;;;;5108219;27;20264;-53
2022/08/14 12:40:49;;;;;;;5.32;4.93;;;30.90;93.30;;;;;;5113556;27;20227;-53
2022/08/14 12:43:18;;;;;;;5.55;5.00;;;30.90;92.90;;;;;;5109897;28;20215;-52
2022/08/14 12:45:49;;;;;;;4.90;4.50;;;30.80;92.50;;;;;;5110298;28;20991;-52
2022/08/14 12:48:19;;;;;;;5.72;5.22;;;30.70;92.90;;;;;;5114824;27;20241;-52
2022/08/14 12:51:00;;;;;;;5.70;5.20;;;30.80;93.20;;;;;;5109650;28;20223;-52
2022/08/14 12:53:35;;;;;;;5.57;4.97;;;31.10;92.30;;;;;;5107881;28;20229;-53
2022/08/14 12:56:06;;;;;;;5.55;5.07;;;31.10;92.40;;;;;;5110158;28;20210;-52
2022/08/14 12:58:57;;;;;;;5.50;5.00;;;31.10;92.40;;;;;;5107956;28;20315;-52
2022/08/14 13:01:27;;;;;;;5.55;5.00;;;31.00;91.40;;;;;;5111320;27;20226;-52
2022/08/14 13:04:07;;;;;;;5.20;4.80;;;31.10;91.60;;;;;;5109578;27;20239;-52
2022/08/14 13:06:40;;;;;;;5.10;4.57;;;31.10;91.90;;;;;;5109990;28;20203;-52
2022/08/14 13:09:13;;;;;;;5.10;4.70;;;31.10;91.00;;;;;;5112353;27;20226;-52
2022/08/14 13:11:44;;;;;;;5.50;5.10;;;31.10;91.90;;;;;;5106408;28;20314;-52
2022/08/14 13:14:13;;;;;;;4.97;4.47;;;31.20;90.90;;;;;;5117877;27;20252;-52
2022/08/14 13:16:45;;;;;;;5.32;4.82;;;31.10;91.60;;;;;;5116745;27;20234;-52
2022/08/14 13:19:18;;;;;;;5.75;5.25;;;31.20;91.10;;;;;;5113732;27;20223;-52
2022/08/14 13:21:52;;;;;;;5.10;4.70;;;30.90;90.80;;;;;;5104941;27;20242;-52
2022/08/14 13:24:34;;;;;;;5.03;4.63;;;30.60;91.40;;;;;;5108605;28;20200;-52
2022/08/14 13:27:03;;;;;;;4.88;4.50;;;30.40;91.50;;;;;;5109014;28;20572;-52
2022/08/14 13:29:39;;;;;;;5.07;4.63;;;30.20;91.80;;;;;;5109375;28;20200;-52
2022/08/14 13:32:08;;;;;;;5.20;4.80;;;30.10;91.30;;;;;;5106141;28;20307;-52
2022/08/14 13:34:39;;;;;;;4.50;4.20;;;30.20;92.20;;;;;;5113257;27;20214;-53
2022/08/14 13:37:10;;;;;;;4.53;4.22;;;30.40;91.60;;;;;;5104362;27;20695;-52
2022/08/14 13:39:47;;;;;;;4.22;3.83;;;30.50;91.60;;;;;;5108169;28;20722;-53
2022/08/14 13:42:26;;;;;;;4.70;4.28;;;30.50;90.90;;;;;;5109765;28;20229;-53